Time;durP1;ratioP1;P1;durP2;ratioP2;P2;SDS_P1;SDS_P2;PMS_P1;PMS_P2;Temp;Humidity;BMP_temperature;BMP_pressure;BME280_temperature;BME280_humidity;BME280_pressure;Samples;Min_cycle;Max_cycle;Signal;HPM_P1;HPM_P2
2021/08/05 00:00:46;;;;;;;;;4.50;4.50;;;;;26.78;41.65;101071.22;4937762;28;45506;-75
2021/08/05 00:03:11;;;;;;;;;5.50;5.50;;;;;26.76;41.24;101063.41;4938186;28;45641;-75
2021/08/05 00:05:37;;;;;;;;;6.50;6.00;;;;;26.74;41.20;101060.13;4937482;28;45900;-75
2021/08/05 00:08:03;;;;;;;;;5.00;5.00;;;;;26.76;41.21;101059.91;4937126;28;46033;-75
2021/08/05 00:10:29;;;;;;;;;7.75;5.75;;;;;26.76;41.33;101058.06;4936099;28;45447;-75
2021/08/05 00:12:54;;;;;;;;;4.25;4.25;;;;;26.77;41.29;101064.22;4937531;28;45436;-75
2021/08/05 00:15:20;;;;;;;;;6.25;5.25;;;;;26.74;41.42;101058.28;4937819;28;45488;-75
2021/08/05 00:17:45;;;;;;;;;5.25;5.25;;;;;26.75;41.40;101061.78;4937329;28;49262;-75
2021/08/05 00:20:11;;;;;;;;;4.00;4.00;;;;;26.74;41.13;101057.47;4937713;28;45263;-75
2021/08/05 00:22:37;;;;;;;;;6.00;5.00;;;;;26.75;41.35;101053.78;4937293;28;45598;-75
2021/08/05 00:25:03;;;;;;;;;5.00;5.00;;;;;26.74;41.36;101063.63;4937540;28;45481;-76
2021/08/05 00:27:28;;;;;;;;;6.75;5.75;;;;;26.75;41.25;101056.44;4934843;28;45465;-75
2021/08/05 00:29:54;;;;;;;;;6.50;6.50;;;;;26.76;41.30;101063.41;4935651;28;45395;-75
2021/08/05 00:32:19;;;;;;;;;7.75;6.00;;;;;26.75;41.41;101056.44;4935257;28;45302;-76
2021/08/05 00:34:44;;;;;;;;;5.75;5.75;;;;;26.75;41.32;101053.78;4935460;28;46486;-75
2021/08/05 00:37:10;;;;;;;;;5.00;4.00;;;;;26.73;41.54;101055.81;4935433;28;45989;-75
2021/08/05 00:39:35;;;;;;;;;5.25;5.25;;;;;26.74;41.78;101052.94;4935694;28;45438;-75
2021/08/05 00:42:00;;;;;;;;;5.00;5.00;;;;;26.71;41.33;101044.53;4937882;28;45306;-76
2021/08/05 00:44:26;;;;;;;;;8.00;6.00;;;;;26.74;41.47;101041.44;4935428;28;45468;-75
2021/08/05 00:46:51;;;;;;;;;6.00;6.00;;;;;26.74;41.67;101044.13;4934494;28;46830;-75
2021/08/05 00:49:16;;;;;;;;;5.00;4.00;;;;;26.77;41.46;101050.88;4935396;28;45769;-75
2021/08/05 00:51:43;;;;;;;;;6.00;4.75;;;;;26.78;41.33;101047.19;4935670;28;45384;-75
2021/08/05 00:54:08;;;;;;;;;7.00;6.00;;;;;26.77;41.40;101042.88;4937687;28;45616;-74
2021/08/05 00:56:34;;;;;;;;;6.50;6.50;;;;;26.79;41.15;101048.81;4934974;28;45493;-76
2021/08/05 00:58:59;;;;;;;;;7.00;5.00;;;;;26.74;41.16;101042.28;4935182;28;45466;-75
2021/08/05 01:01:32;;;;;;;;;3.75;3.75;;;;;26.77;41.46;101041.03;4933832;28;46157;-75
2021/08/05 01:03:59;;;;;;;;;5.25;5.25;;;;;26.75;42.07;101040.44;4935490;28;45590;-75
2021/08/05 01:06:51;;;;;;;;;6.50;6.50;;;;;26.79;41.47;101040.81;4935734;28;46232;-75
2021/08/05 01:09:34;;;;;;;;;5.00;5.00;;;;;26.75;41.38;101037.75;4933612;28;45355;-75
2021/08/05 01:12:14;;;;;;;;;5.50;5.00;;;;;26.78;41.40;101036.53;4937396;28;45317;-75
2021/08/05 01:14:43;;;;;;;;;6.00;4.00;;;;;26.76;41.43;101038.56;4936762;28;45338;-75
2021/08/05 01:17:12;;;;;;;;;5.50;5.50;;;;;26.76;41.27;101038.56;4935909;28;46430;-75
2021/08/05 01:20:09;;;;;;;;;5.50;5.00;;;;;26.77;41.21;101034.88;4931241;28;45427;-75
2021/08/05 01:23:12;;;;;;;;;5.25;5.25;;;;;26.76;41.44;101034.03;4925977;28;45451;-75
2021/08/05 01:25:45;;;;;;;;;5.50;4.50;;;;;26.73;41.14;101027.28;4937098;28;45403;-75
2021/08/05 01:28:12;;;;;;;;;4.25;4.25;;;;;26.76;41.17;101027.88;4938184;28;46527;-75
2021/08/05 01:30:41;;;;;;;;;7.00;6.00;;;;;26.77;41.52;101024.19;4938068;28;45369;-75
2021/08/05 01:33:07;;;;;;;;;5.75;5.00;;;;;26.76;41.59;101025.22;4940398;28;45303;-75
2021/08/05 01:35:33;;;;;;;;;6.00;6.00;;;;;26.74;41.16;101015.59;4934301;28;45413;-75
2021/08/05 01:38:00;;;;;;;;;5.00;5.00;;;;;26.76;41.60;101017.22;4937796;28;47143;-75
2021/08/05 01:40:26;;;;;;;;;4.00;4.00;;;;;26.72;41.07;101012.31;4936763;28;45359;-75
2021/08/05 01:42:55;;;;;;;;;4.25;4.25;;;;;26.76;41.26;101017.22;4938233;28;45488;-75
2021/08/05 01:45:21;;;;;;;;;5.25;5.25;;;;;26.73;41.03;101013.94;4938982;28;45418;-75
2021/08/05 01:47:47;;;;;;;;;4.50;4.50;;;;;26.74;41.41;101006.75;4938935;28;46585;-75
2021/08/05 01:50:14;;;;;;;;;5.25;4.75;;;;;26.74;41.47;100999.56;4938080;28;45776;-75
2021/08/05 01:52:41;;;;;;;;;4.25;4.25;;;;;26.70;41.13;100989.53;4938190;28;45521;-75
2021/08/05 01:55:08;;;;;;;;;5.00;5.00;;;;;26.71;41.41;100993.81;4938123;28;45396;-75
2021/08/05 01:57:33;;;;;;;;;4.50;4.00;;;;;26.68;41.13;100994.22;4937907;28;46028;-75
2021/08/05 01:59:59;;;;;;;;;5.25;5.25;;;;;26.72;41.12;100995.47;4939646;28;45422;-75
2021/08/05 02:02:24;;;;;;;;;4.75;4.00;;;;;26.72;41.24;100996.28;4936877;28;45529;-75
2021/08/05 02:04:50;;;;;;;;;5.75;5.75;;;;;26.73;41.64;100991.75;4937463;28;45519;-75
2021/08/05 02:07:28;;;;;;;;;4.50;4.50;;;;;26.73;41.77;100987.25;4937583;28;46531;-75
2021/08/05 02:10:02;;;;;;;;;5.00;5.00;;;;;26.73;41.48;100997.91;4922542;28;45613;-75
2021/08/05 02:12:31;;;;;;;;;4.25;4.25;;;;;26.70;41.53;100978.84;4938753;28;45232;-75
2021/08/05 02:14:57;;;;;;;;;5.25;4.50;;;;;26.72;41.89;100985.63;4937706;28;45374;-75
2021/08/05 02:17:24;;;;;;;;;4.50;4.50;;;;;26.73;41.44;100989.09;4939276;28;46334;-75
2021/08/05 02:19:49;;;;;;;;;7.25;5.00;;;;;26.74;41.24;100983.56;4936708;28;45478;-75
2021/08/05 02:22:18;;;;;;;;;5.25;5.25;;;;;26.74;41.36;100983.56;4937739;28;45398;-75
2021/08/05 02:24:45;;;;;;;;;6.25;5.25;;;;;26.70;41.78;100973.50;4921580;28;45386;-75
2021/08/05 02:27:11;;;;;;;;;6.75;6.75;;;;;26.71;41.15;100967.13;4924303;28;45391;-75
2021/08/05 02:29:38;;;;;;;;;5.25;4.50;;;;;26.74;41.75;100969.38;4936846;28;45451;-75
2021/08/05 02:32:05;;;;;;;;;4.00;4.00;;;;;26.71;41.62;100965.28;4936870;28;45348;-76
2021/08/05 02:34:34;;;;;;;;;6.00;6.00;;;;;26.74;41.50;100969.38;4935403;28;45306;-75
2021/08/05 02:36:59;;;;;;;;;6.00;5.00;;;;;26.74;41.67;100966.72;4937351;28;46393;-75
2021/08/05 02:39:25;;;;;;;;;5.25;5.25;;;;;26.73;41.36;100959.72;4926748;28;45353;-75
2021/08/05 02:41:51;;;;;;;;;5.00;5.00;;;;;26.71;41.51;100948.44;4938923;28;45315;-75
2021/08/05 02:44:17;;;;;;;;;4.00;4.00;;;;;26.73;41.59;100949.06;4936358;28;45413;-75
2021/08/05 02:46:44;;;;;;;;;4.00;4.00;;;;;26.72;41.52;100947.44;4935751;28;47211;-75
2021/08/05 02:49:10;;;;;;;;;4.50;4.25;;;;;26.72;41.48;100942.09;4937029;28;45523;-75
2021/08/05 02:51:37;;;;;;;;;4.75;4.75;;;;;26.72;41.64;100942.91;4926024;28;45315;-75
2021/08/05 02:54:03;;;;;;;;;5.25;5.25;;;;;26.70;41.41;100936.16;4939206;28;45326;-75
2021/08/05 02:56:29;;;;;;;;;5.75;5.75;;;;;26.70;41.53;100933.47;4936892;28;47098;-75
2021/08/05 02:58:54;;;;;;;;;4.75;4.75;;;;;26.66;41.30;100921.56;4931263;28;45331;-75
2021/08/05 03:01:21;;;;;;;;;3.50;3.50;;;;;26.70;41.64;100928.94;4935678;28;45377;-75
2021/08/05 03:03:50;;;;;;;;;4.50;4.50;;;;;26.73;41.53;100933.88;4937035;28;45389;-75
2021/08/05 03:06:16;;;;;;;;;4.25;4.25;;;;;26.73;41.37;100938.38;4938427;28;47414;-76
2021/08/05 03:08:42;;;;;;;;;5.75;5.00;;;;;26.72;41.26;100934.09;4937289;28;45464;-75
2021/08/05 03:11:08;;;;;;;;;5.00;5.00;;;;;26.72;41.43;100932.25;4936952;28;45455;-75
2021/08/05 03:13:34;;;;;;;;;6.00;5.25;;;;;26.70;41.74;100928.16;4936638;28;45421;-74
2021/08/05 03:15:59;;;;;;;;;4.00;4.00;;;;;26.69;41.20;100929.16;4936600;28;46147;-76
2021/08/05 03:18:25;;;;;;;;;4.00;4.00;;;;;26.72;41.55;100936.75;4937594;28;45505;-76
2021/08/05 03:20:50;;;;;;;;;3.00;3.00;;;;;26.72;41.58;100934.91;4938283;28;45246;-75
2021/08/05 03:23:15;;;;;;;;;4.00;3.75;;;;;26.71;41.64;100924.44;4934349;28;45659;-75
2021/08/05 03:25:40;;;;;;;;;4.50;4.00;;;;;26.72;41.53;100929.56;4936604;28;46139;-75
2021/08/05 03:28:06;;;;;;;;;5.75;5.00;;;;;26.69;41.36;100923.84;4936070;28;45489;-75
2021/08/05 03:30:31;;;;;;;;;3.00;3.00;;;;;26.70;41.70;100917.47;4936706;28;45869;-75
2021/08/05 03:33:00;;;;;;;;;4.75;4.75;;;;;26.72;41.69;100923.41;4938728;28;45436;-75
2021/08/05 03:35:26;;;;;;;;;6.00;4.75;;;;;26.72;41.71;100915.41;4936189;28;45577;-75
2021/08/05 03:37:51;;;;;;;;;5.00;5.00;;;;;26.72;41.50;100918.91;4936376;28;45387;-75
2021/08/05 03:40:17;;;;;;;;;4.25;4.25;;;;;26.72;41.56;100918.06;4937934;28;45322;-75
2021/08/05 03:42:42;;;;;;;;;4.25;4.25;;;;;26.72;41.22;100915.41;4937784;28;45704;-75
2021/08/05 03:45:08;;;;;;;;;3.00;3.00;;;;;26.73;41.61;100911.69;4938058;28;46068;-75
2021/08/05 03:47:33;;;;;;;;;4.75;4.75;;;;;26.73;41.54;100909.84;4937631;28;45428;-75
2021/08/05 03:49:59;;;;;;;;;4.00;4.00;;;;;26.72;41.28;100918.06;4937924;28;45429;-75
2021/08/05 03:52:24;;;;;;;;;4.25;4.25;;;;;26.70;41.24;100912.94;4937781;28;45476;-75
2021/08/05 03:54:49;;;;;;;;;5.00;5.00;;;;;26.72;41.63;100918.06;4935244;28;45433;-75
2021/08/05 03:57:15;;;;;;;;;5.25;5.25;;;;;26.68;41.49;100908.84;4937717;28;45354;-75
2021/08/05 03:59:40;;;;;;;;;3.00;3.00;;;;;26.71;41.49;100913.75;4936540;28;45345;-75
2021/08/05 04:02:05;;;;;;;;;4.50;4.50;;;;;26.70;41.67;100920.94;4935795;28;46439;-75
2021/08/05 04:04:31;;;;;;;;;4.25;3.25;;;;;26.67;41.81;100910.72;4935948;28;45948;-75
2021/08/05 04:06:56;;;;;;;;;4.25;4.25;;;;;26.68;41.57;100907.00;4932239;28;45331;-75
2021/08/05 04:09:21;;;;;;;;;4.00;4.00;;;;;26.71;41.70;100919.91;4937306;28;45346;-75
2021/08/05 04:11:47;;;;;;;;;5.75;5.75;;;;;26.63;41.42;100904.13;4936667;28;45444;-75
2021/08/05 04:14:13;;;;;;;;;5.00;5.00;;;;;26.69;41.53;100919.31;4935898;28;45654;-75
2021/08/05 04:16:38;;;;;;;;;3.25;3.25;;;;;26.69;41.49;100908.66;4934538;28;45369;-75
2021/08/05 04:19:03;;;;;;;;;5.00;4.00;;;;;26.70;41.52;100910.25;4934940;28;45548;-75
2021/08/05 04:21:29;;;;;;;;;4.00;4.00;;;;;26.69;41.45;100910.47;4936369;28;45326;-75
2021/08/05 04:23:54;;;;;;;;;3.00;3.00;;;;;26.70;41.37;100912.13;4937887;28;46484;-75
2021/08/05 04:26:19;;;;;;;;;4.50;4.50;;;;;26.69;41.51;100902.47;4935252;28;45383;-75
2021/08/05 04:28:44;;;;;;;;;3.25;3.25;;;;;26.68;41.24;100903.50;4935785;28;45398;-75
2021/08/05 04:31:10;;;;;;;;;5.00;5.00;;;;;26.66;41.72;100897.56;4935901;28;45297;-75
2021/08/05 04:33:35;;;;;;;;;3.25;3.25;;;;;26.65;41.33;100903.94;4935576;28;45483;-74
2021/08/05 04:36:00;;;;;;;;;5.75;3.25;;;;;26.67;41.72;100908.03;4937598;28;45449;-75
2021/08/05 04:38:26;;;;;;;;;5.25;5.25;;;;;26.68;41.61;100907.00;4934376;28;45327;-75
2021/08/05 04:40:51;;;;;;;;;6.00;6.00;;;;;26.69;42.04;100907.81;4934826;28;45465;-75
2021/08/05 04:43:16;;;;;;;;;5.00;5.00;;;;;26.70;41.57;100915.59;4935509;28;46148;-75
2021/08/05 04:45:42;;;;;;;;;4.75;4.00;;;;;26.67;41.36;100909.88;4932126;28;45838;-75
2021/08/05 04:48:08;;;;;;;;;4.00;4.00;;;;;26.70;41.70;100914.81;4937249;28;45291;-75
2021/08/05 04:50:36;;;;;;;;;4.50;4.00;;;;;26.69;41.64;100913.16;4936936;28;45398;-75
2021/08/05 04:53:03;;;;;;;;;6.00;5.00;;;;;26.67;41.60;100913.38;4936927;28;45641;-75
2021/08/05 04:55:29;;;;;;;;;4.25;3.25;;;;;26.70;41.51;100912.94;4935534;28;45371;-76
2021/08/05 04:57:57;;;;;;;;;4.00;4.00;;;;;26.70;41.43;100920.13;4936561;28;45343;-75
2021/08/05 05:00:28;;;;;;;;;4.00;4.00;;;;;26.70;41.50;100917.47;4936032;28;45497;-75
2021/08/05 05:02:54;;;;;;;;;3.75;3.75;;;;;26.71;41.43;100916.44;4935591;28;46328;-75
2021/08/05 05:05:20;;;;;;;;;3.75;3.75;;;;;26.69;41.62;100915.81;4935187;28;45513;-76
2021/08/05 05:07:46;;;;;;;;;4.00;4.00;;;;;26.70;41.63;100922.81;4934662;28;45692;-75
2021/08/05 05:10:12;;;;;;;;;3.75;3.75;;;;;26.64;41.55;100905.78;4934923;28;45228;-75
2021/08/05 05:12:38;;;;;;;;;4.75;4.75;;;;;26.68;41.59;100909.66;4934920;28;46058;-75
2021/08/05 05:15:04;;;;;;;;;5.00;5.00;;;;;26.69;41.58;100910.47;4937282;28;45320;-75
2021/08/05 05:17:29;;;;;;;;;4.75;4.75;;;;;26.70;41.49;100912.13;4933869;28;45505;-75
2021/08/05 05:19:54;;;;;;;;;5.00;5.00;;;;;26.71;41.73;100908.41;4934752;28;45313;-75
2021/08/05 05:22:20;;;;;;;;;3.00;3.00;;;;;26.69;41.75;100907.81;4934473;28;46211;-75
2021/08/05 05:24:46;;;;;;;;;4.50;4.50;;;;;26.67;41.28;100893.88;4935216;28;45359;-75
2021/08/05 05:27:12;;;;;;;;;3.75;3.25;;;;;26.68;41.47;100906.16;4937442;28;45388;-75
2021/08/05 05:29:37;;;;;;;;;4.75;4.75;;;;;26.68;41.35;100896.31;4934829;28;45380;-75
2021/08/05 05:32:04;;;;;;;;;5.00;4.00;;;;;26.66;41.52;100897.56;4934701;28;46910;-76
2021/08/05 05:34:29;;;;;;;;;6.00;4.25;;;;;26.69;41.53;100902.47;4933209;28;45502;-73
2021/08/05 05:36:54;;;;;;;;;5.00;4.75;;;;;26.68;41.16;100906.16;4934475;28;45320;-72
2021/08/05 05:39:20;;;;;;;;;5.25;5.25;;;;;26.68;41.50;100907.00;4932593;28;45554;-70
2021/08/05 05:41:45;;;;;;;;;4.00;4.00;;;;;26.66;41.87;100897.56;4934214;28;47402;-72
2021/08/05 05:44:10;;;;;;;;;3.00;3.00;;;;;26.69;41.20;100897.13;4930474;28;45444;-71
2021/08/05 05:46:35;;;;;;;;;4.00;4.00;;;;;26.67;41.29;100900.03;4933276;28;45406;-74
2021/08/05 05:49:01;;;;;;;;;4.75;3.75;;;;;26.68;41.58;100901.66;4945564;28;45335;-72
2021/08/05 05:51:26;;;;;;;;;5.00;5.00;;;;;26.68;41.52;100898.16;4934887;28;46252;-73
2021/08/05 05:53:52;;;;;;;;;4.75;4.75;;;;;26.66;41.60;100889.56;4936308;28;45552;-74
2021/08/05 05:56:17;;;;;;;;;4.00;4.00;;;;;26.67;42.07;100885.88;4934165;28;45420;-74
2021/08/05 05:58:42;;;;;;;;;4.00;4.00;;;;;26.70;41.52;100890.78;4932844;28;45305;-74
2021/08/05 06:01:08;;;;;;;;;4.00;4.00;;;;;26.69;41.75;100895.31;4930128;28;46005;-73
2021/08/05 06:03:33;;;;;;;;;4.00;4.00;;;;;26.69;41.73;100895.31;4927503;28;45430;-73
2021/08/05 06:05:58;;;;;;;;;6.25;5.25;;;;;26.72;42.06;100908.22;4934289;28;45394;-72
2021/08/05 06:08:24;;;;;;;;;3.50;3.50;;;;;26.69;41.85;100899.81;4937304;28;45457;-72
2021/08/05 06:10:49;;;;;;;;;4.00;4.00;;;;;26.73;41.64;100901.84;4937603;28;47031;-72
2021/08/05 06:13:15;;;;;;;;;3.00;3.00;;;;;26.72;41.91;100900.22;4938180;28;45251;-73
2021/08/05 06:15:40;;;;;;;;;7.00;4.50;;;;;26.76;41.66;100900.59;4930058;28;45517;-73
2021/08/05 06:18:05;;;;;;;;;2.50;2.50;;;;;26.80;41.99;100909.84;4939679;28;45398;-72
2021/08/05 06:20:31;;;;;;;;;4.00;4.00;;;;;26.86;41.70;100897.47;4935460;28;45676;-74
2021/08/05 06:22:57;;;;;;;;;4.25;4.25;;;;;26.93;42.07;100892.13;4937339;28;45338;-73
2021/08/05 06:25:22;;;;;;;;;7.00;4.25;;;;;27.04;41.31;100896.78;4937639;28;45444;-74
2021/08/05 06:27:48;;;;;;;;;5.25;4.25;;;;;27.14;41.62;100888.31;4937596;28;45477;-74
2021/08/05 06:30:14;;;;;;;;;6.25;5.00;;;;;27.19;41.68;100877.03;4939765;28;45460;-74
2021/08/05 06:32:40;;;;;;;;;5.00;4.00;;;;;27.29;41.21;100880.03;4937478;28;45492;-74
2021/08/05 06:35:07;;;;;;;;;5.25;4.50;;;;;27.38;41.32;100888.59;4936785;28;45465;-74
2021/08/05 06:37:32;;;;;;;;;4.50;4.50;;;;;27.46;41.48;100886.69;4937012;28;45469;-74
2021/08/05 06:39:59;;;;;;;;;4.00;4.00;;;;;27.51;41.09;100885.00;4937106;28;46805;-74
2021/08/05 06:42:24;;;;;;;;;4.00;4.00;;;;;27.57;41.22;100882.50;4937362;28;45412;-74
2021/08/05 06:44:49;;;;;;;;;6.00;5.00;;;;;27.61;40.70;100881.06;4938359;28;45545;-74
2021/08/05 06:47:15;;;;;;;;;4.00;4.00;;;;;27.62;40.77;100874.66;4937056;28;45452;-74
2021/08/05 06:49:41;;;;;;;;;4.00;4.00;;;;;27.65;40.81;100879.56;4936742;28;45311;-74
2021/08/05 06:52:06;;;;;;;;;3.75;3.75;;;;;27.68;40.57;100881.00;4935730;28;45580;-74
2021/08/05 06:54:32;;;;;;;;;5.00;5.00;;;;;27.70;40.28;100887.75;4933476;28;45576;-75
2021/08/05 06:56:57;;;;;;;;;5.00;5.00;;;;;27.74;40.27;100880.91;4939222;28;45425;-74
2021/08/05 06:59:22;;;;;;;;;4.00;4.00;;;;;27.74;40.79;100878.25;4932756;28;47207;-74
2021/08/05 07:01:48;;;;;;;;;5.00;4.00;;;;;27.77;40.26;100876.16;4932516;28;45531;-74
2021/08/05 07:04:13;;;;;;;;;4.50;4.50;;;;;27.80;40.57;100873.91;4924004;28;45580;-74
2021/08/05 07:06:39;;;;;;;;;4.00;3.50;;;;;27.79;40.38;100874.13;4937064;28;45501;-75
2021/08/05 07:09:05;;;;;;;;;5.00;5.00;;;;;27.81;40.23;100867.56;4938885;28;46270;-74
2021/08/05 07:11:30;;;;;;;;;5.00;5.00;;;;;27.81;40.82;100861.38;4936363;28;45340;-74
2021/08/05 07:13:55;;;;;;;;;3.00;3.00;;;;;27.86;40.62;100866.88;4936911;28;45441;-74
2021/08/05 07:16:21;;;;;;;;;6.00;5.00;;;;;27.91;40.02;100866.22;4936282;28;45412;-74
2021/08/05 07:18:46;;;;;;;;;5.25;5.25;;;;;27.94;40.04;100871.97;4936126;28;45437;-74
2021/08/05 07:21:11;;;;;;;;;4.00;4.00;;;;;27.94;40.04;100873.81;4934795;28;45406;-74
2021/08/05 07:23:37;;;;;;;;;3.25;3.25;;;;;27.99;39.92;100881.16;4935327;28;45385;-74
2021/08/05 07:26:02;;;;;;;;;4.00;4.00;;;;;27.95;40.01;100868.22;4936676;28;46043;-74
2021/08/05 07:28:28;;;;;;;;;3.50;3.50;;;;;28.00;40.40;100874.78;4936424;28;45912;-75
2021/08/05 07:30:55;;;;;;;;;4.00;4.00;;;;;28.01;40.63;100869.22;4935486;28;45576;-74
2021/08/05 07:33:21;;;;;;;;;4.00;4.00;;;;;28.01;40.11;100865.72;4936091;28;45479;-74
2021/08/05 07:35:46;;;;;;;;;5.50;5.50;;;;;28.01;39.94;100868.38;4935798;28;45317;-74
2021/08/05 07:38:12;;;;;;;;;3.25;3.25;;;;;28.03;39.89;100859.09;4934923;28;46177;-74
2021/08/05 07:40:37;;;;;;;;;3.50;3.50;;;;;28.04;39.98;100860.75;4937766;28;45477;-75
2021/08/05 07:43:03;;;;;;;;;5.00;3.75;;;;;28.05;40.20;100867.72;4938019;28;45348;-74
2021/08/05 07:45:29;;;;;;;;;5.00;5.00;;;;;28.05;39.97;100848.19;4938189;28;45385;-74
2021/08/05 07:47:54;;;;;;;;;6.00;4.00;;;;;28.04;39.90;100849.22;4933298;28;47963;-74
2021/08/05 07:50:19;;;;;;;;;3.50;3.00;;;;;28.07;39.84;100856.81;4934780;28;45502;-74
2021/08/05 07:52:44;;;;;;;;;5.00;5.00;;;;;27.99;39.71;100838.38;4937788;28;45461;-74
2021/08/05 07:55:11;;;;;;;;;6.50;5.25;;;;;28.09;40.52;100853.91;4937807;28;45286;-74
2021/08/05 07:57:37;;;;;;;;;6.00;3.00;;;;;28.07;39.83;100848.78;4937600;28;46020;-75
2021/08/05 08:00:04;;;;;;;;;3.75;3.75;;;;;28.09;40.32;100849.38;4938211;28;45355;-75
2021/08/05 08:02:29;;;;;;;;;6.00;5.00;;;;;28.11;40.15;100849.16;4937194;28;45417;-74
2021/08/05 08:04:55;;;;;;;;;4.75;4.00;;;;;28.08;40.01;100853.09;4937405;28;45286;-74
2021/08/05 08:07:20;;;;;;;;;5.00;4.00;;;;;28.13;39.99;100850.56;4933353;28;45974;-75
2021/08/05 08:09:45;;;;;;;;;4.25;4.25;;;;;28.13;40.10;100841.75;4934973;28;49228;-74
2021/08/05 08:12:11;;;;;;;;;4.00;4.00;;;;;28.11;40.13;100839.28;4933891;28;45317;-75
2021/08/05 08:14:36;;;;;;;;;3.75;3.75;;;;;28.14;39.73;100846.03;4934283;28;45623;-74
2021/08/05 08:17:02;;;;;;;;;3.00;3.00;;;;;28.12;39.78;100840.09;4935113;28;47246;-74
2021/08/05 08:19:28;;;;;;;;;4.00;4.00;;;;;28.13;39.70;100836.41;4935749;28;45742;-74
2021/08/05 08:21:53;;;;;;;;;5.25;4.00;;;;;28.11;40.27;100833.94;4935991;28;45421;-74
2021/08/05 08:24:20;;;;;;;;;3.50;3.50;;;;;28.14;40.07;100833.50;4937330;28;45539;-74
2021/08/05 08:26:45;;;;;;;;;3.00;3.00;;;;;28.13;40.21;100820.34;4937054;28;46240;-74
2021/08/05 08:29:11;;;;;;;;;5.50;5.00;;;;;28.15;39.79;100826.28;4935329;28;45367;-75
2021/08/05 08:31:37;;;;;;;;;5.25;4.50;;;;;28.16;39.88;100820.69;4934344;28;45279;-74
2021/08/05 08:34:02;;;;;;;;;4.00;4.00;;;;;28.17;39.93;100814.31;4935123;28;45234;-74
2021/08/05 08:36:27;;;;;;;;;4.25;4.25;;;;;28.14;39.65;100809.41;4936037;28;46214;-75
2021/08/05 08:38:53;;;;;;;;;3.50;3.00;;;;;28.16;40.29;100818.03;4937319;28;45351;-74
2021/08/05 08:41:19;;;;;;;;;4.00;4.00;;;;;28.18;40.28;100817.81;4935598;28;45385;-74
2021/08/05 08:43:45;;;;;;;;;6.00;4.00;;;;;28.17;39.58;100818.84;4934499;28;45347;-75
2021/08/05 08:46:11;;;;;;;;;4.00;4.00;;;;;28.18;40.27;100817.81;4934620;28;46502;-74
2021/08/05 08:48:40;;;;;;;;;4.00;4.00;;;;;28.20;39.68;100812.25;4935337;28;45469;-75
2021/08/05 08:51:06;;;;;;;;;6.50;5.00;;;;;28.18;40.18;100805.25;4936816;28;45537;-74
2021/08/05 08:53:37;;;;;;;;;5.75;5.00;;;;;28.21;40.27;100803.19;4935595;28;45747;-74
2021/08/05 08:56:06;;;;;;;;;4.00;4.00;;;;;28.22;39.53;100791.44;4934109;28;46173;-74
2021/08/05 08:58:31;;;;;;;;;5.00;3.50;;;;;28.20;40.06;100789.00;4929976;28;45434;-74
2021/08/05 09:00:57;;;;;;;;;4.50;3.50;;;;;28.22;40.23;100784.22;4934823;28;46067;-74
2021/08/05 09:03:22;;;;;;;;;6.00;6.00;;;;;28.21;40.17;100787.13;4936862;28;45537;-74
2021/08/05 09:05:48;;;;;;;;;5.25;4.00;;;;;28.24;39.40;100787.50;4936016;28;47185;-74
2021/08/05 09:08:13;;;;;;;;;5.25;5.25;;;;;28.24;39.64;100773.28;4934671;28;45322;-74
2021/08/05 09:10:38;;;;;;;;;4.75;4.75;;;;;28.24;39.47;100771.44;4935216;28;45848;-74
2021/08/05 09:13:07;;;;;;;;;5.00;5.00;;;;;28.26;40.13;100768.56;4934763;28;45532;-75
2021/08/05 09:15:41;;;;;;;;;4.00;4.00;;;;;28.26;40.12;100785.41;4934720;28;46107;-74
2021/08/05 09:18:34;;;;;;;;;4.00;3.00;;;;;28.27;39.92;100771.00;4937268;28;45349;-75
2021/08/05 09:21:17;;;;;;;;;5.00;4.75;;;;;28.27;39.98;100768.31;4935544;28;45311;-74
2021/08/05 09:23:53;;;;;;;;;5.00;5.00;;;;;28.25;39.99;100773.09;4934321;28;45454;-75
2021/08/05 09:26:29;;;;;;;;;4.50;4.50;;;;;28.22;39.89;100768.19;4934646;28;46959;-74
2021/08/05 09:29:07;;;;;;;;;4.00;3.25;;;;;28.20;39.44;100759.56;4933115;28;45393;-75
2021/08/05 09:31:34;;;;;;;;;3.00;3.00;;;;;28.16;39.49;100766.38;4935002;28;45639;-74
2021/08/05 09:34:07;;;;;;;;;3.25;3.25;;;;;28.17;39.97;100763.50;4934645;28;45551;-75
2021/08/05 09:36:34;;;;;;;;;3.50;3.50;;;;;28.16;39.90;100756.50;4934765;28;46309;-74
2021/08/05 09:38:59;;;;;;;;;4.00;4.00;;;;;28.15;40.11;100749.53;4936792;28;45353;-74
2021/08/05 09:41:25;;;;;;;;;5.00;5.00;;;;;28.15;39.64;100740.69;4934835;28;45451;-74
2021/08/05 09:44:00;;;;;;;;;5.50;4.00;;;;;28.12;39.51;100741.97;4937841;28;45492;-74
2021/08/05 09:46:31;;;;;;;;;5.00;5.00;;;;;28.11;40.00;100729.63;4936535;28;45592;-74
2021/08/05 09:48:56;;;;;;;;;3.25;3.25;;;;;28.09;39.46;100721.00;4939566;28;45672;-74
2021/08/05 09:51:21;;;;;;;;;5.00;5.00;;;;;28.06;39.60;100716.94;4940057;28;45467;-74
2021/08/05 09:54:04;;;;;;;;;4.00;4.00;;;;;28.06;39.79;100719.59;4939979;28;45620;-74
2021/08/05 09:56:35;;;;;;;;;6.25;5.00;;;;;28.07;39.45;100721.25;4939126;28;45480;-74
2021/08/05 09:59:12;;;;;;;;;3.00;3.00;;;;;28.06;40.10;100714.25;4938783;28;45357;-74
2021/08/05 10:02:01;;;;;;;;;3.75;3.75;;;;;28.05;39.45;100714.50;4939134;28;45510;-74
2021/08/05 10:04:29;;;;;;;;;3.75;3.75;;;;;28.02;40.20;100699.72;4939645;28;45666;-74
2021/08/05 10:07:06;;;;;;;;;3.75;3.75;;;;;28.00;39.99;100704.44;4937968;28;45570;-74
2021/08/05 10:09:32;;;;;;;;;5.00;4.00;;;;;27.99;39.54;100708.19;4939236;28;45284;-74
2021/08/05 10:12:21;;;;;;;;;4.00;4.00;;;;;27.96;40.04;100697.94;4936500;28;46375;-74
2021/08/05 10:14:49;;;;;;;;;3.00;3.00;;;;;27.94;39.39;100689.31;4939289;28;45427;-74
2021/08/05 10:17:15;;;;;;;;;4.25;4.25;;;;;27.93;40.11;100706.41;4937443;28;46088;-74
2021/08/05 10:19:47;;;;;;;;;5.00;5.00;;;;;27.93;39.40;100693.03;4937584;28;45509;-74
2021/08/05 10:22:15;;;;;;;;;4.00;4.00;;;;;27.91;39.71;100693.25;4937705;28;45655;-74
2021/08/05 10:24:46;;;;;;;;;5.00;5.00;;;;;27.90;40.04;100693.47;4937592;28;45472;-74
2021/08/05 10:27:13;;;;;;;;;3.25;3.25;;;;;27.90;39.65;100683.59;4939099;28;46964;-74
2021/08/05 10:29:40;;;;;;;;;3.75;3.75;;;;;27.89;39.98;100675.81;4937294;28;45376;-74
2021/08/05 10:32:08;;;;;;;;;4.00;4.00;;;;;27.88;39.60;100674.16;4937180;28;45480;-74
2021/08/05 10:34:36;;;;;;;;;5.75;5.00;;;;;27.85;39.91;100662.06;4937340;28;45439;-75
2021/08/05 10:37:04;;;;;;;;;4.25;3.25;;;;;27.89;40.03;100670.47;4937115;28;46104;-74
2021/08/05 10:39:30;;;;;;;;;3.50;3.50;;;;;27.87;40.14;100676.03;4937860;28;45495;-74
2021/08/05 10:41:59;;;;;;;;;3.00;3.00;;;;;27.88;39.77;100684.88;4938892;28;45343;-74
2021/08/05 10:44:28;;;;;;;;;4.75;4.00;;;;;27.85;40.20;100670.91;4937216;28;45508;-74
2021/08/05 10:46:59;;;;;;;;;4.00;4.00;;;;;27.83;40.16;100664.97;4937169;28;45476;-74
2021/08/05 10:49:26;;;;;;;;;4.00;4.00;;;;;27.81;40.07;100667.06;4935538;28;45364;-74
2021/08/05 10:51:51;;;;;;;;;3.50;3.50;;;;;27.80;40.17;100659.25;4938662;28;45557;-74
2021/08/05 10:54:47;;;;;;;;;3.25;3.25;;;;;27.83;39.78;100650.78;4936922;28;45396;-74
2021/08/05 10:57:26;;;;;;;;;5.00;5.00;;;;;27.74;39.72;100627.00;4934515;28;45455;-74
2021/08/05 11:00:15;;;;;;;;;3.75;3.75;;;;;27.80;39.41;100645.88;4938246;28;45442;-74
2021/08/05 11:02:51;;;;;;;;;4.25;3.25;;;;;27.70;39.64;100630.34;4937001;28;45342;-74
2021/08/05 11:05:23;;;;;;;;;5.25;4.00;;;;;27.74;39.77;100644.88;4936957;28;45409;-75
2021/08/05 11:07:53;;;;;;;;;3.00;3.00;;;;;27.72;39.73;100628.25;4936689;28;47689;-74
2021/08/05 11:10:19;;;;;;;;;3.00;3.00;;;;;27.70;40.09;100630.34;4936160;28;45489;-74
2021/08/05 11:13:07;;;;;;;;;3.00;3.00;;;;;27.67;40.00;100618.25;4920691;28;45411;-74
2021/08/05 11:15:35;;;;;;;;;4.00;4.00;;;;;27.68;40.26;100619.06;4935826;28;45302;-74
2021/08/05 11:18:15;;;;;;;;;3.50;2.50;;;;;27.67;39.62;100615.59;4937125;28;46044;-74
2021/08/05 11:20:50;;;;;;;;;3.50;3.50;;;;;27.68;40.01;100619.91;4936607;28;45350;-74
2021/08/05 11:23:33;;;;;;;;;3.75;3.75;;;;;27.67;40.16;100615.59;4936643;28;45495;-75
2021/08/05 11:25:58;;;;;;;;;4.00;2.25;;;;;27.67;39.77;100617.44;4934931;28;45414;-74